Terminal Aerodrome Forecast
Issued by NWS Greer, SC

Home | Current Version | Previous Version | Text Only | Print | Product List | Glossary On
Versions: 1 2 3 4 5 6 7 8 9 10 11 12 13 14 15 16 17 18 19 20 21 22 23 24 25 26 27 28 29 30 31 32 33 34 35 36 37 38 39 40 41 42 43 44 45 46 47 48 49 50
552
FTUS42 KGSP 051728
TAFCLT
TAF
KCLT 051728Z 0518/0618 32008G15KT P6SM VCSH BKN050 OVC060
      TEMPO 0522/0602 4SM -SHRA OVC025
     FM060200 30006KT P6SM VCSH OVC045 PROB30 0603/0608 5SM -SHRA
     FM061300 33010G17KT P6SM FEW045 BKN060=

USA.gov is the U.S. government's official web portal to all federal, state and local government web resources and services.